createdAt,value
2019-03-29T00:01:43.262Z,74.13
2019-03-29T00:05:46.833Z,74.54
2019-03-29T00:09:50.446Z,74.63
2019-03-29T00:13:54.061Z,74.59
2019-03-29T00:17:57.674Z,74.59
2019-03-29T00:22:01.293Z,74.45
2019-03-29T00:26:04.905Z,74.35
2019-03-29T00:30:09.083Z,74.37
2019-03-29T00:34:12.640Z,74.53
2019-03-29T00:38:16.263Z,74.75
2019-03-29T00:42:19.978Z,74.53
2019-03-29T00:46:23.585Z,74.16
2019-03-29T00:50:27.199Z,74.67
2019-03-29T00:54:30.830Z,74.88
2019-03-29T00:58:34.428Z,74.85
2019-03-29T01:02:38.054Z,74.76
2019-03-29T01:06:41.770Z,74.72
2019-03-29T01:10:46.395Z,74.77
2019-03-29T01:14:50.013Z,74.83
2019-03-29T01:18:53.626Z,74.83
2019-03-29T01:22:57.306Z,74.84
2019-03-29T01:27:01.531Z,74.69
2019-03-29T01:31:05.183Z,74.72
2019-03-29T01:35:09.535Z,74.76
2019-03-29T01:39:13.230Z,74.93
2019-03-29T01:43:16.848Z,74.76
2019-03-29T01:47:20.458Z,74.77
2019-03-29T01:51:24.070Z,74.75
2019-03-29T01:55:27.787Z,74.84
2019-03-29T01:59:31.707Z,74.79
2019-03-29T02:03:35.325Z,74.77
2019-03-29T02:07:38.937Z,74.88
2019-03-29T02:11:42.536Z,74.84
2019-03-29T02:15:49.446Z,74.95
2019-03-29T02:19:53.161Z,74.88
2019-03-29T02:23:57.082Z,74.28
2019-03-29T02:28:01.007Z,74.01
2019-03-29T02:32:04.627Z,73.97
2019-03-29T02:36:08.230Z,73.92
2019-03-29T02:40:11.931Z,73.73
2019-03-29T02:44:15.562Z,74.01
2019-03-29T02:48:19.179Z,74.13
2019-03-29T02:52:22.786Z,74.22
2019-03-29T02:56:26.401Z,74.30
2019-03-29T03:00:30.014Z,73.99
2019-03-29T03:04:33.728Z,74.13
2019-03-29T03:08:37.345Z,74.30
2019-03-29T03:12:41.069Z,74.21
2019-03-29T03:16:44.882Z,74.55
2019-03-29T03:20:48.490Z,74.57
2019-03-29T03:24:52.066Z,74.45
2019-03-29T03:28:55.718Z,74.37
2019-03-29T03:32:59.345Z,74.59
2019-03-29T03:37:03.262Z,74.62
2019-03-29T03:41:07.079Z,74.71
2019-03-29T03:45:11.406Z,74.78
2019-03-29T03:49:15.118Z,74.95
2019-03-29T03:53:19.158Z,74.83
2019-03-29T03:57:23.029Z,74.49
2019-03-29T04:01:26.675Z,74.76
2019-03-29T04:05:30.300Z,74.76
2019-03-29T04:09:48.499Z,74.78
2019-03-29T04:13:39.213Z,74.76
2019-03-29T04:17:42.749Z,74.70
2019-03-29T04:21:46.387Z,74.52
2019-03-29T04:25:50.001Z,74.59
2019-03-29T04:29:53.614Z,74.66
2019-03-29T04:33:57.227Z,74.60
2019-03-29T04:38:00.944Z,74.71
2019-03-29T04:42:04.667Z,74.67
2019-03-29T04:46:08.318Z,74.42
2019-03-29T04:50:12.043Z,74.61
2019-03-29T04:54:15.707Z,74.75
2019-03-29T04:58:19.629Z,74.76
2019-03-29T05:02:23.247Z,74.65
2019-03-29T05:06:26.859Z,74.52
2019-03-29T05:10:30.777Z,74.68
2019-03-29T05:14:34.391Z,74.68
2019-03-29T05:18:38.006Z,74.82
2019-03-29T05:22:41.721Z,74.50
2019-03-29T05:26:45.436Z,74.63
2019-03-29T05:30:49.059Z,74.65
2019-03-29T05:34:52.699Z,74.71
2019-03-29T05:38:56.282Z,74.50
2019-03-29T05:43:01.119Z,74.44
2019-03-29T05:47:04.840Z,74.09
2019-03-29T05:51:08.557Z,73.90
2019-03-29T05:55:12.579Z,73.91
2019-03-29T05:59:16.416Z,73.80
2019-03-29T06:03:20.087Z,73.84
2019-03-29T06:07:23.833Z,73.59
2019-03-29T06:11:27.593Z,73.43
2019-03-29T06:15:32.211Z,72.99
2019-03-29T06:19:35.818Z,73.07
2019-03-29T06:23:39.831Z,72.77
2019-03-29T06:27:43.940Z,72.35
2019-03-29T06:31:47.662Z,72.37
2019-03-29T06:35:52.971Z,71.90
2019-03-29T06:39:58.257Z,71.99
2019-03-29T06:44:01.882Z,71.36
2019-03-29T06:48:05.604Z,71.33
2019-03-29T06:52:09.417Z,70.86
2019-03-29T06:56:12.985Z,70.89
2019-03-29T07:00:16.851Z,70.75
2019-03-29T07:04:20.467Z,70.14
2019-03-29T07:08:24.083Z,70.00
2019-03-29T07:12:27.694Z,69.49
2019-03-29T07:16:31.406Z,69.61
2019-03-29T07:20:35.126Z,68.40
2019-03-29T07:24:38.742Z,66.67
2019-03-29T07:28:42.456Z,65.31
2019-03-29T07:32:46.067Z,64.57
2019-03-29T07:36:49.684Z,60.38
2019-03-29T07:40:53.299Z,55.58
2019-03-29T07:44:57.019Z,49.31
2019-03-29T07:49:00.650Z,46.49
2019-03-29T07:53:04.344Z,46.23
2019-03-29T07:57:07.955Z,44.82
2019-03-29T08:01:11.675Z,44.90
2019-03-29T08:05:15.419Z,43.67
2019-03-29T08:09:22.583Z,42.82
2019-03-29T08:13:25.449Z,41.59
2019-03-29T08:17:29.719Z,42.17
2019-03-29T08:21:33.520Z,42.60
2019-03-29T08:25:37.145Z,42.89
2019-03-29T08:29:45.379Z,42.28
2019-03-29T08:33:55.740Z,37.97
2019-03-29T08:37:59.456Z,35.40
2019-03-29T08:42:05.854Z,37.78
2019-03-29T08:46:49.001Z,44.31
2019-03-29T08:50:59.193Z,47.13
2019-03-29T08:55:02.981Z,46.26
2019-03-29T08:59:18.270Z,37.47
2019-03-29T09:03:26.611Z,37.10
2019-03-29T09:07:43.893Z,44.03
2019-03-29T09:11:38.916Z,40.96
2019-03-29T09:15:42.032Z,40.33
2019-03-29T09:19:54.850Z,44.24
2019-03-29T09:23:59.563Z,38.09
2019-03-29T09:28:06.046Z,40.48
2019-03-29T09:32:10.862Z,44.90
2019-03-29T09:36:21.731Z,43.72
2019-03-29T09:40:29.014Z,43.99
2019-03-29T09:44:37.929Z,48.69
2019-03-29T09:48:50.861Z,49.76
2019-03-29T09:52:55.584Z,41.57
2019-03-29T09:57:00.060Z,36.02
2019-03-29T10:01:04.629Z,42.84
2019-03-29T10:05:13.538Z,47.47
2019-03-29T10:09:36.859Z,49.54
2019-03-29T10:14:07.871Z,43.15
2019-03-29T10:18:12.072Z,43.84
2019-03-29T10:22:15.701Z,44.20
2019-03-29T10:26:28.598Z,47.27
2019-03-29T10:30:38.668Z,46.96
2019-03-29T10:34:45.347Z,46.51
2019-03-29T10:38:49.096Z,45.84
2019-03-29T10:42:58.026Z,44.08
2019-03-29T10:46:58.171Z,41.88
2019-03-29T10:51:01.886Z,44.68
2019-03-29T10:55:06.429Z,42.36
2019-03-29T10:59:10.037Z,43.10
2019-03-29T11:03:13.858Z,44.18
2019-03-29T11:07:17.575Z,43.66
2019-03-29T11:11:21.296Z,45.42
2019-03-29T11:15:24.902Z,40.42
2019-03-29T11:19:28.521Z,39.50
2019-03-29T11:23:32.132Z,38.01
2019-03-29T11:27:35.747Z,39.64
2019-03-29T11:31:39.566Z,45.00
2019-03-29T11:35:43.289Z,43.10
2019-03-29T11:39:47.904Z,43.09
2019-03-29T11:43:51.540Z,41.03
2019-03-29T11:48:07.274Z,40.83
2019-03-29T11:52:00.708Z,41.70
2019-03-29T11:56:04.422Z,42.56
2019-03-29T12:00:10.979Z,43.39
2019-03-29T12:04:16.648Z,43.64
2019-03-29T12:08:21.964Z,43.37
2019-03-29T12:12:27.748Z,43.34
2019-03-29T12:16:32.883Z,42.67
2019-03-29T12:20:38.253Z,41.16
2019-03-29T12:24:41.971Z,44.73
2019-03-29T12:28:45.732Z,42.29
2019-03-29T12:32:50.758Z,40.60
2019-03-29T12:36:56.475Z,43.28
2019-03-29T12:41:00.067Z,42.96
2019-03-29T12:45:06.273Z,43.64
2019-03-29T12:49:10.462Z,41.58
2019-03-29T12:53:15.213Z,41.58
2019-03-29T12:57:20.450Z,41.05
2019-03-29T13:01:38.502Z,42.61
2019-03-29T13:05:30.339Z,43.38
2019-03-29T13:09:35.316Z,41.88
2019-03-29T13:13:41.043Z,42.50
2019-03-29T13:17:45.982Z,43.96
2019-03-29T13:21:50.792Z,45.19
2019-03-29T13:25:54.442Z,43.13
2019-03-29T13:29:58.070Z,43.66
2019-03-29T13:34:01.934Z,43.50
2019-03-29T13:38:05.612Z,43.04
2019-03-29T13:42:10.213Z,41.52
2019-03-29T13:46:14.052Z,41.79
2019-03-29T13:50:18.919Z,44.45
2019-03-29T13:54:22.564Z,44.39
2019-03-29T13:58:28.234Z,43.71
2019-03-29T14:02:32.612Z,41.62
2019-03-29T14:06:43.496Z,41.83
2019-03-29T14:10:46.537Z,43.93
2019-03-29T14:14:50.953Z,42.71
2019-03-29T14:18:54.644Z,41.00
2019-03-29T14:23:06.534Z,41.29
2019-03-29T14:27:20.389Z,42.38
2019-03-29T14:31:28.541Z,41.95
2019-03-29T14:35:33.025Z,42.49
2019-03-29T14:39:40.847Z,42.83
2019-03-29T14:43:47.261Z,41.84
2019-03-29T14:48:07.532Z,42.24
2019-03-29T14:56:41.763Z,43.02
2019-03-29T15:00:57.628Z,43.02
2019-03-29T15:04:57.141Z,43.06
2019-03-29T15:09:01.793Z,42.32
2019-03-29T15:13:06.063Z,42.78
2019-03-29T15:17:10.815Z,43.92
2019-03-29T15:21:21.887Z,42.49
2019-03-29T15:25:26.215Z,43.60
2019-03-29T15:29:30.330Z,44.48
2019-03-29T15:33:36.342Z,44.49
2019-03-29T15:37:40.349Z,42.73
2019-03-29T15:41:44.199Z,45.00
2019-03-29T15:45:48.503Z,45.51
2019-03-29T15:49:56.219Z,45.41
2019-03-29T15:53:57.985Z,46.46
2019-03-29T15:58:02.922Z,46.95
2019-03-29T16:02:06.688Z,44.86
2019-03-29T16:06:10.504Z,45.53
2019-03-29T16:10:15.019Z,45.05
2019-03-29T16:14:29.844Z,45.60
2019-03-29T16:18:53.109Z,45.45
2019-03-29T16:22:58.108Z,46.45
2019-03-29T16:27:02.148Z,46.48
2019-03-29T16:31:08.348Z,47.29
2019-03-29T16:35:31.146Z,45.98
2019-03-29T16:39:52.264Z,48.20
2019-03-29T16:43:56.697Z,49.18
2019-03-29T16:48:00.574Z,48.71
2019-03-29T16:52:04.384Z,50.21
2019-03-29T16:56:08.228Z,49.20
2019-03-29T17:00:12.902Z,50.54
2019-03-29T17:04:16.783Z,49.85
2019-03-29T17:08:20.357Z,51.72
2019-03-29T17:12:23.921Z,53.98
2019-03-29T17:16:30.614Z,53.44
2019-03-29T17:20:32.979Z,54.08
2019-03-29T17:24:36.697Z,57.38
2019-03-29T17:28:40.414Z,57.94
2019-03-29T17:32:44.025Z,60.74
2019-03-29T17:36:47.744Z,61.92
2019-03-29T17:40:51.358Z,61.50
2019-03-29T17:44:55.078Z,62.51
2019-03-29T17:48:58.686Z,63.08
2019-03-29T17:53:02.402Z,63.41
2019-03-29T17:57:06.019Z,63.54
2019-03-29T18:01:09.631Z,64.22
2019-03-29T18:05:13.346Z,64.62
2019-03-29T18:09:16.961Z,65.67
2019-03-29T18:13:20.580Z,66.68
2019-03-29T18:17:24.293Z,66.84
2019-03-29T18:21:27.951Z,67.34
2019-03-29T18:25:31.631Z,67.20
2019-03-29T18:29:35.200Z,67.31
2019-03-29T18:33:40.291Z,67.21
2019-03-29T18:37:44.337Z,67.46
2019-03-29T18:41:48.027Z,67.29
2019-03-29T18:45:51.772Z,67.15
2019-03-29T18:49:55.459Z,66.74
2019-03-29T18:53:59.069Z,66.51
2019-03-29T18:58:05.777Z,68.52
2019-03-29T19:02:08.249Z,68.25
2019-03-29T19:06:12.104Z,68.95
2019-03-29T19:10:15.818Z,68.63
2019-03-29T19:14:20.422Z,68.24
2019-03-29T19:18:24.433Z,69.30
2019-03-29T19:22:28.500Z,69.32
2019-03-29T19:26:32.942Z,69.60
2019-03-29T19:30:38.499Z,69.25
2019-03-29T19:34:42.172Z,69.19
2019-03-29T19:38:46.441Z,69.49
2019-03-29T19:42:50.555Z,69.41
2019-03-29T19:46:54.825Z,69.75
2019-03-29T19:50:58.910Z,69.67
2019-03-29T19:55:02.821Z,69.74
2019-03-29T19:59:06.643Z,69.81
2019-03-29T20:03:10.807Z,68.99
2019-03-29T20:07:14.570Z,69.86
2019-03-29T20:11:18.182Z,70.03
2019-03-29T20:15:22.330Z,70.32
2019-03-29T20:19:27.378Z,69.28
2019-03-29T20:23:31.375Z,68.66
2019-03-29T20:27:35.690Z,68.95
2019-03-29T20:31:39.361Z,69.39
2019-03-29T20:35:43.141Z,70.23
2019-03-29T20:39:47.408Z,70.88
2019-03-29T20:43:51.755Z,71.01
2019-03-29T20:47:55.421Z,71.24
2019-03-29T20:51:59.712Z,70.63
2019-03-29T20:56:06.409Z,69.83
2019-03-29T21:00:10.304Z,69.40
2019-03-29T21:04:14.670Z,70.37
2019-03-29T21:08:18.395Z,70.28
2019-03-29T21:12:22.011Z,69.70
2019-03-29T21:16:25.627Z,69.67
2019-03-29T21:20:29.243Z,71.03
2019-03-29T21:24:33.879Z,71.53
2019-03-29T21:28:37.501Z,71.40
2019-03-29T21:32:41.235Z,70.83
2019-03-29T21:36:44.775Z,68.83
2019-03-29T21:40:48.341Z,68.39
2019-03-29T21:44:51.958Z,70.09
2019-03-29T21:48:55.561Z,69.99
2019-03-29T21:52:59.179Z,70.74
2019-03-29T21:57:04.427Z,70.18
2019-03-29T22:01:08.042Z,69.67
2019-03-29T22:05:12.515Z,70.04
2019-03-29T22:09:16.195Z,71.01
2019-03-29T22:13:20.013Z,70.88
2019-03-29T22:17:23.669Z,70.13
2019-03-29T22:21:27.344Z,70.23
2019-03-29T22:25:30.964Z,70.80
2019-03-29T22:29:34.569Z,70.76
2019-03-29T22:33:38.183Z,71.54
2019-03-29T22:37:41.800Z,71.65
2019-03-29T22:41:45.323Z,71.66
2019-03-29T22:45:48.927Z,71.55
2019-03-29T22:49:52.534Z,67.93
2019-03-29T22:53:56.150Z,69.37
2019-03-29T22:57:59.764Z,70.65
2019-03-29T23:02:03.788Z,71.30
2019-03-29T23:06:07.400Z,71.26
2019-03-29T23:10:11.368Z,71.37
2019-03-29T23:14:14.933Z,71.69
2019-03-29T23:18:18.651Z,70.75
2019-03-29T23:22:22.264Z,70.79
2019-03-29T23:26:25.883Z,71.07
2019-03-29T23:30:30.721Z,71.64
2019-03-29T23:34:34.569Z,71.44
2019-03-29T23:38:38.624Z,70.77
2019-03-29T23:42:42.485Z,69.84
2019-03-29T23:46:46.096Z,69.68
2019-03-29T23:50:50.375Z,70.37
2019-03-29T23:54:54.040Z,70.58
2019-03-29T23:58:57.664Z,71.36
